Terminal Aerodrome Forecast
Issued by NWS

Home | Current Version | Previous Version | Text Only | Print | Product List | Glossary On
Versions: 1 2 3 4 5 6 7 8 9 10 11 12 13 14 15
000
FTUS43 KABR 042101 AAA
TAFMBG
TAF AMD
KMBG 042101Z 0421/0518 21007KT P6SM FEW080 SCT100
     FM042200 11010KT P6SM SCT100 BKN200
     FM051400 13014G20KT P6SM BKN150=

USA.gov is the U.S. government's official web portal to all federal, state and local government web resources and services.